Time;durP1;ratioP1;P1;durP2;ratioP2;P2;SDS_P1;SDS_P2;PMS_P1;PMS_P2;Temp;Humidity;BMP_temperature;BMP_pressure;BME280_temperature;BME280_humidity;BME280_pressure;Samples;Min_cycle;Max_cycle;Signal;HPM_P1;HPM_P2
2022/05/19 00:01:04;;;;;;;5.95;4.40;;;;;;;;;;4989453;28;20481;-51
2022/05/19 00:03:33;;;;;;;12.03;4.00;;;;;;;;;;4986675;28;20503;-52
2022/05/19 00:05:59;;;;;;;6.82;4.20;;;;;;;;;;4986719;28;20886;-51
2022/05/19 00:08:25;;;;;;;4.53;4.07;;;;;;;;;;4989928;28;20382;-50
2022/05/19 00:10:51;;;;;;;5.05;3.92;;;;;;;;;;4989736;28;20430;-50
2022/05/19 00:13:17;;;;;;;6.88;4.72;;;;;;;;;;4986829;28;20502;-48
2022/05/19 00:15:43;;;;;;;4.78;4.28;;;;;;;;;;4987356;28;20430;-49
2022/05/19 00:18:09;;;;;;;5.80;4.05;;;;;;;;;;4986830;28;20802;-55
2022/05/19 00:20:35;;;;;;;5.40;4.30;;;;;;;;;;4988267;28;20535;-53
2022/05/19 00:23:02;;;;;;;6.15;4.28;;;;;;;;;;4990628;28;20410;-54
2022/05/19 00:25:28;;;;;;;5.15;4.22;;;;;;;;;;4991071;28;20486;-55
2022/05/19 00:27:54;;;;;;;4.78;4.28;;;;;;;;;;4990618;28;20497;-54
2022/05/19 00:30:19;;;;;;;6.35;4.63;;;;;;;;;;4992751;28;20418;-55
2022/05/19 00:32:45;;;;;;;4.82;4.28;;;;;;;;;;4993263;28;20475;-49
2022/05/19 00:35:11;;;;;;;7.07;4.65;;;;;;;;;;4992684;28;20410;-54
2022/05/19 00:37:37;;;;;;;4.50;4.10;;;;;;;;;;4993130;28;20437;-51
2022/05/19 00:40:04;;;;;;;4.67;4.03;;;;;;;;;;4993440;28;20393;-49
2022/05/19 00:42:45;;;;;;;5.30;4.30;;;;;;;;;;4993120;28;20398;-53
2022/05/19 00:45:16;;;;;;;8.25;4.63;;;;;;;;;;4989217;28;20790;-51
2022/05/19 00:47:48;;;;;;;5.65;4.10;;;;;;;;;;4989411;28;20394;-53
2022/05/19 00:50:19;;;;;;;5.40;4.15;;;;;;;;;;4987919;28;20769;-52
2022/05/19 00:52:46;;;;;;;6.68;4.25;;;;;;;;;;4989741;28;20390;-55
2022/05/19 00:55:18;;;;;;;8.00;4.43;;;;;;;;;;4988048;28;20665;-53
2022/05/19 00:57:45;;;;;;;6.60;4.50;;;;;;;;;;4986929;28;20822;-54
2022/05/19 01:00:15;;;;;;;5.85;4.30;;;;;;;;;;4991163;28;20389;-54
2022/05/19 01:02:43;;;;;;;4.65;4.20;;;;;;;;;;4990265;28;20406;-55
2022/05/19 01:05:09;;;;;;;5.65;4.20;;;;;;;;;;4990139;28;20695;-50
2022/05/19 01:07:54;;;;;;;6.70;4.35;;;;;;;;;;4991009;28;20706;-54
2022/05/19 01:10:20;;;;;;;7.45;4.43;;;;;;;;;;4990432;28;20466;-54
2022/05/19 01:12:47;;;;;;;6.30;4.50;;;;;;;;;;4992878;28;20484;-55
2022/05/19 01:15:13;;;;;;;5.15;4.40;;;;;;;;;;4990575;28;20654;-52
2022/05/19 01:17:39;;;;;;;5.15;4.65;;;;;;;;;;4994249;28;20406;-49
2022/05/19 01:20:11;;;;;;;6.40;4.28;;;;;;;;;;4993594;28;20402;-54
2022/05/19 01:22:41;;;;;;;5.43;4.20;;;;;;;;;;4992763;28;20390;-48
2022/05/19 01:25:26;;;;;;;6.60;4.40;;;;;;;;;;4995564;28;20442;-53
2022/05/19 01:27:52;;;;;;;5.53;4.53;;;;;;;;;;4995990;28;20418;-52
2022/05/19 01:30:18;;;;;;;4.47;4.10;;;;;;;;;;4994457;28;20683;-50
2022/05/19 01:32:44;;;;;;;5.28;4.32;;;;;;;;;;4994758;28;20386;-49
2022/05/19 01:35:10;;;;;;;5.72;4.72;;;;;;;;;;4995675;28;20513;-53
2022/05/19 01:37:36;;;;;;;4.80;4.15;;;;;;;;;;4997214;28;20855;-52
2022/05/19 01:40:08;;;;;;;5.93;5.10;;;;;;;;;;4996760;28;20493;-50
2022/05/19 01:42:40;;;;;;;6.07;4.13;;;;;;;;;;4996432;28;20423;-48
2022/05/19 01:45:24;;;;;;;5.82;4.70;;;;;;;;;;4992490;28;20391;-49
2022/05/19 01:47:57;;;;;;;5.82;4.20;;;;;;;;;;4995587;28;20481;-50
2022/05/19 01:50:29;;;;;;;6.00;4.40;;;;;;;;;;4996376;28;20829;-52
2022/05/19 01:53:02;;;;;;;6.93;4.50;;;;;;;;;;4994311;28;20390;-50
2022/05/19 01:55:35;;;;;;;6.45;4.57;;;;;;;;;;4994119;28;20484;-54
2022/05/19 01:58:04;;;;;;;4.93;4.35;;;;;;;;;;5004485;28;20511;-52
2022/05/19 02:00:32;;;;;;;5.63;4.30;;;;;;;;;;4998321;28;21503;-52
2022/05/19 02:03:03;;;;;;;5.83;4.07;;;;;;;;;;5015036;28;20740;-53
2022/05/19 02:05:32;;;;;;;8.90;4.47;;;;;;;;;;4998121;28;20428;-51
2022/05/19 02:07:59;;;;;;;6.03;4.70;;;;;;;;;;4998346;28;20393;-54
2022/05/19 02:10:27;;;;;;;6.47;4.63;;;;;;;;;;4998040;28;20412;-50
2022/05/19 02:12:55;;;;;;;6.78;4.60;;;;;;;;;;5016027;28;20495;-52
2022/05/19 02:15:22;;;;;;;4.65;4.20;;;;;;;;;;4997125;28;20385;-49
2022/05/19 02:17:48;;;;;;;6.30;4.97;;;;;;;;;;4997020;28;20427;-53
2022/05/19 02:20:16;;;;;;;5.93;4.93;;;;;;;;;;4995552;28;20845;-54
2022/05/19 02:22:43;;;;;;;8.60;4.80;;;;;;;;;;4995099;28;20665;-53
2022/05/19 02:25:21;;;;;;;5.32;4.63;;;;;;;;;;4995481;28;20393;-53
2022/05/19 02:27:52;;;;;;;5.78;4.78;;;;;;;;;;4994184;28;20444;-49
2022/05/19 02:30:23;;;;;;;6.18;5.10;;;;;;;;;;5013233;28;20716;-52
2022/05/19 02:32:49;;;;;;;8.95;5.10;;;;;;;;;;4996198;28;20389;-50
2022/05/19 02:35:15;;;;;;;5.57;4.70;;;;;;;;;;4996553;28;20400;-52
2022/05/19 02:37:41;;;;;;;7.53;4.63;;;;;;;;;;4997401;28;20530;-49
2022/05/19 02:40:08;;;;;;;4.57;4.18;;;;;;;;;;5014837;28;20443;-52
2022/05/19 02:42:34;;;;;;;4.85;4.35;;;;;;;;;;4995669;28;20403;-50
2022/05/19 02:45:00;;;;;;;6.45;4.65;;;;;;;;;;4996678;28;20393;-53
2022/05/19 02:47:26;;;;;;;6.60;4.60;;;;;;;;;;5014662;28;20480;-51
2022/05/19 02:49:52;;;;;;;4.80;4.40;;;;;;;;;;4997050;28;20419;-53
2022/05/19 02:52:18;;;;;;;5.35;4.65;;;;;;;;;;5012177;28;20953;-48
2022/05/19 02:54:44;;;;;;;5.70;4.75;;;;;;;;;;5012258;28;20388;-49
2022/05/19 02:57:10;;;;;;;5.53;5.03;;;;;;;;;;4996641;28;20461;-50
2022/05/19 02:59:36;;;;;;;6.28;4.88;;;;;;;;;;5014550;28;20765;-53
2022/05/19 03:02:02;;;;;;;5.28;4.68;;;;;;;;;;5014854;28;20387;-51
2022/05/19 03:04:28;;;;;;;7.95;4.80;;;;;;;;;;4996478;28;20407;-51
2022/05/19 03:06:54;;;;;;;5.68;4.88;;;;;;;;;;5012063;28;20400;-53
2022/05/19 03:09:21;;;;;;;7.97;4.82;;;;;;;;;;4995212;28;20681;-53
2022/05/19 03:11:47;;;;;;;7.88;5.30;;;;;;;;;;5011973;28;20440;-49
2022/05/19 03:14:13;;;;;;;6.70;5.05;;;;;;;;;;5013104;28;20488;-50
2022/05/19 03:16:42;;;;;;;5.30;4.80;;;;;;;;;;4993604;28;20496;-51
2022/05/19 03:19:09;;;;;;;5.20;4.53;;;;;;;;;;5012924;28;20411;-51
2022/05/19 03:21:35;;;;;;;6.28;4.90;;;;;;;;;;4995762;28;20393;-54
2022/05/19 03:24:02;;;;;;;6.70;5.25;;;;;;;;;;4995806;28;20388;-49
2022/05/19 03:26:28;;;;;;;5.40;4.68;;;;;;;;;;4995580;28;20400;-48
2022/05/19 03:28:54;;;;;;;8.88;5.22;;;;;;;;;;4994905;28;20396;-52
2022/05/19 03:31:20;;;;;;;9.40;5.53;;;;;;;;;;4994404;28;20804;-53
2022/05/19 03:33:46;;;;;;;6.97;5.53;;;;;;;;;;4993049;28;20643;-54
2022/05/19 03:36:12;;;;;;;8.00;5.57;;;;;;;;;;4994310;28;20872;-53
2022/05/19 03:38:39;;;;;;;5.70;5.20;;;;;;;;;;4993708;28;20393;-51
2022/05/19 03:41:05;;;;;;;5.70;5.20;;;;;;;;;;4993182;28;20605;-52
2022/05/19 03:43:31;;;;;;;6.90;5.68;;;;;;;;;;4993073;28;20423;-52
2022/05/19 03:45:57;;;;;;;6.10;5.05;;;;;;;;;;5014825;28;20666;-51
2022/05/19 03:48:23;;;;;;;9.20;5.57;;;;;;;;;;4993119;28;20408;-51
2022/05/19 03:50:49;;;;;;;6.53;5.70;;;;;;;;;;5008779;28;20413;-53
2022/05/19 03:53:16;;;;;;;6.28;5.10;;;;;;;;;;4991345;28;20910;-54
2022/05/19 03:55:42;;;;;;;8.27;5.45;;;;;;;;;;4992438;28;20393;-51
2022/05/19 03:58:08;;;;;;;6.18;5.18;;;;;;;;;;4990956;28;20419;-54
2022/05/19 04:00:34;;;;;;;7.97;5.80;;;;;;;;;;4992152;28;20432;-51
2022/05/19 04:03:00;;;;;;;6.82;5.45;;;;;;;;;;4992657;28;20421;-52
2022/05/19 04:05:27;;;;;;;6.53;5.47;;;;;;;;;;4992832;28;20402;-53
2022/05/19 04:07:53;;;;;;;8.23;5.40;;;;;;;;;;4992711;28;20395;-50
2022/05/19 04:10:19;;;;;;;6.17;5.57;;;;;;;;;;4990061;28;20417;-49
2022/05/19 04:12:45;;;;;;;7.07;5.73;;;;;;;;;;4990600;28;20395;-53
2022/05/19 04:15:12;;;;;;;7.75;5.47;;;;;;;;;;4989181;28;20379;-50
2022/05/19 04:17:38;;;;;;;7.70;5.60;;;;;;;;;;4988890;28;20386;-55
2022/05/19 04:20:06;;;;;;;9.25;5.40;;;;;;;;;;4990154;28;20395;-52
2022/05/19 04:22:32;;;;;;;9.90;5.93;;;;;;;;;;4989535;28;20453;-53
2022/05/19 04:25:00;;;;;;;8.93;6.13;;;;;;;;;;4990083;28;20386;-55
2022/05/19 04:27:27;;;;;;;6.35;5.70;;;;;;;;;;4988771;28;20387;-52
2022/05/19 04:29:56;;;;;;;8.23;5.43;;;;;;;;;;4989074;28;20457;-52
2022/05/19 04:32:23;;;;;;;6.63;5.55;;;;;;;;;;4989905;28;20441;-52
2022/05/19 04:34:48;;;;;;;8.60;5.53;;;;;;;;;;4989411;28;20686;-52
2022/05/19 04:37:15;;;;;;;7.85;6.07;;;;;;;;;;4989598;28;20394;-50
2022/05/19 04:39:41;;;;;;;7.80;5.93;;;;;;;;;;4989406;28;20394;-52
2022/05/19 04:42:08;;;;;;;8.65;5.80;;;;;;;;;;4989314;28;20389;-50
2022/05/19 04:44:34;;;;;;;8.30;5.88;;;;;;;;;;4986658;28;20429;-52
2022/05/19 04:47:00;;;;;;;7.45;5.43;;;;;;;;;;4989251;28;20394;-55
2022/05/19 04:49:26;;;;;;;7.93;6.00;;;;;;;;;;4988034;28;20568;-49
2022/05/19 04:51:52;;;;;;;8.27;6.30;;;;;;;;;;4988024;28;20629;-50
2022/05/19 04:54:18;;;;;;;7.75;6.15;;;;;;;;;;4989158;28;20406;-48
2022/05/19 04:56:44;;;;;;;11.48;6.80;;;;;;;;;;4990188;28;20387;-52
2022/05/19 04:59:14;;;;;;;9.10;6.18;;;;;;;;;;4991754;28;20814;-54
2022/05/19 05:01:47;;;;;;;10.00;6.40;;;;;;;;;;4992639;28;20463;-49
2022/05/19 05:04:14;;;;;;;7.13;5.82;;;;;;;;;;4990833;28;20518;-50
2022/05/19 05:06:40;;;;;;;7.05;5.20;;;;;;;;;;4992085;28;20719;-56
2022/05/19 05:09:06;;;;;;;9.45;6.20;;;;;;;;;;4990030;28;20814;-49
2022/05/19 05:11:32;;;;;;;9.93;6.18;;;;;;;;;;4988779;28;20516;-49
2022/05/19 05:13:59;;;;;;;8.77;5.93;;;;;;;;;;4988204;28;20430;-51
2022/05/19 05:16:25;;;;;;;10.48;5.85;;;;;;;;;;4990257;28;20383;-52
2022/05/19 05:18:51;;;;;;;7.57;5.68;;;;;;;;;;4991445;28;20659;-54
2022/05/19 05:21:17;;;;;;;8.07;5.68;;;;;;;;;;4989899;28;20494;-54
2022/05/19 05:23:43;;;;;;;8.52;6.18;;;;;;;;;;4990161;28;20399;-51
2022/05/19 05:26:09;;;;;;;8.63;5.83;;;;;;;;;;4992026;28;20390;-48
2022/05/19 05:28:36;;;;;;;11.07;5.60;;;;;;;;;;4990332;28;20398;-55
2022/05/19 05:31:03;;;;;;;7.07;5.73;;;;;;;;;;4990182;28;20416;-50
2022/05/19 05:33:29;;;;;;;5.72;4.93;;;;;;;;;;4989898;28;20399;-49
2022/05/19 05:35:55;;;;;;;9.13;5.80;;;;;;;;;;4990692;28;20378;-51
2022/05/19 05:38:21;;;;;;;6.88;5.60;;;;;;;;;;4990226;28;20810;-54
2022/05/19 05:40:50;;;;;;;6.35;5.47;;;;;;;;;;4990916;28;20451;-49
2022/05/19 05:43:18;;;;;;;7.95;5.60;;;;;;;;;;4990521;28;20660;-50
2022/05/19 05:45:46;;;;;;;7.50;5.38;;;;;;;;;;4989562;28;20675;-50
2022/05/19 05:48:12;;;;;;;5.43;4.93;;;;;;;;;;4989619;28;20394;-52
2022/05/19 05:50:38;;;;;;;6.00;5.40;;;;;;;;;;4988269;28;20414;-52
2022/05/19 05:53:05;;;;;;;9.90;5.47;;;;;;;;;;4986463;28;20821;-50
2022/05/19 05:55:31;;;;;;;8.90;5.15;;;;;;;;;;4988476;28;20394;-51
2022/05/19 05:57:57;;;;;;;6.40;5.70;;;;;;;;;;4984572;28;21017;-49
2022/05/19 06:00:24;;;;;;;8.07;5.90;;;;;;;;;;4985541;28;20469;-49
2022/05/19 06:02:50;;;;;;;6.72;5.40;;;;;;;;;;4986828;28;20398;-49
2022/05/19 06:05:16;;;;;;;8.55;5.53;;;;;;;;;;4986361;28;20402;-53
2022/05/19 06:07:42;;;;;;;9.68;5.50;;;;;;;;;;4985658;28;20394;-52
2022/05/19 06:10:09;;;;;;;6.65;5.45;;;;;;;;;;4987390;28;20405;-52
2022/05/19 06:12:35;;;;;;;5.15;4.57;;;;;;;;;;4986439;28;20406;-49
2022/05/19 06:15:01;;;;;;;8.50;5.20;;;;;;;;;;4987106;28;20594;-51
2022/05/19 06:17:27;;;;;;;5.88;4.65;;;;;;;;;;4989386;28;20394;-51
2022/05/19 06:19:56;;;;;;;7.93;5.03;;;;;;;;;;4988787;28;20434;-50
2022/05/19 06:22:22;;;;;;;6.10;5.07;;;;;;;;;;4986599;28;20774;-55
2022/05/19 06:24:49;;;;;;;6.82;5.22;;;;;;;;;;4986939;28;20812;-55
2022/05/19 06:27:15;;;;;;;4.93;4.13;;;;;;;;;;4986254;28;20382;-50
2022/05/19 06:29:56;;;;;;;9.50;5.43;;;;;;;;;;4985015;28;20397;-51
2022/05/19 06:32:28;;;;;;;8.10;5.20;;;;;;;;;;4982825;28;20802;-51
2022/05/19 06:34:57;;;;;;;7.40;5.38;;;;;;;;;;4984077;28;20537;-54
2022/05/19 06:37:24;;;;;;;5.20;4.70;;;;;;;;;;4982973;28;20661;-48
2022/05/19 06:39:50;;;;;;;5.77;5.23;;;;;;;;;;4987725;28;20794;-49
2022/05/19 06:42:16;;;;;;;4.93;4.33;;;;;;;;;;4985053;28;20398;-50
2022/05/19 06:44:42;;;;;;;7.67;5.40;;;;;;;;;;4984772;28;20394;-49
2022/05/19 06:47:15;;;;;;;4.60;4.15;;;;;;;;;;4983033;28;20706;-49
2022/05/19 06:49:45;;;;;;;6.88;4.70;;;;;;;;;;4985942;28;20763;-48
2022/05/19 06:52:13;;;;;;;5.68;4.80;;;;;;;;;;4983720;28;20419;-51
2022/05/19 06:54:39;;;;;;;9.25;5.25;;;;;;;;;;4985116;28;20456;-51
2022/05/19 06:57:05;;;;;;;5.57;4.60;;;;;;;;;;4986996;28;20402;-53
2022/05/19 06:59:31;;;;;;;8.15;4.45;;;;;;;;;;5007088;28;20401;-51
2022/05/19 07:01:57;;;;;;;10.30;4.97;;;;;;;;;;4989640;28;20396;-50
2022/05/19 07:04:23;;;;;;;6.80;4.50;;;;;;;;;;4989535;28;20381;-52
2022/05/19 07:06:49;;;;;;;6.60;4.95;;;;;;;;;;4989391;28;20819;-54
2022/05/19 07:09:15;;;;;;;6.30;4.45;;;;;;;;;;5006951;28;20400;-51
2022/05/19 07:11:41;;;;;;;8.65;5.00;;;;;;;;;;4986450;28;20427;-49
2022/05/19 07:14:08;;;;;;;5.97;4.60;;;;;;;;;;4988964;28;20385;-52
2022/05/19 07:16:34;;;;;;;6.10;4.50;;;;;;;;;;4987951;28;20373;-52
2022/05/19 07:21:46;;;;;;;6.45;4.53;;;;;;;;;;5008210;28;20372;-52
2022/05/19 07:24:16;;;;;;;6.47;4.57;;;;;;;;;;4991960;28;20677;-48
2022/05/19 07:26:46;;;;;;;7.15;4.22;;;;;;;;;;4990840;28;20416;-51
2022/05/19 07:29:12;;;;;;;5.22;4.13;;;;;;;;;;4989520;28;20475;-50
2022/05/19 07:31:38;;;;;;;6.53;4.07;;;;;;;;;;4987068;28;20408;-52
2022/05/19 07:34:05;;;;;;;6.53;4.45;;;;;;;;;;4987932;28;20389;-52
2022/05/19 07:36:32;;;;;;;7.68;4.35;;;;;;;;;;4986794;28;20393;-54
2022/05/19 07:38:59;;;;;;;9.07;4.18;;;;;;;;;;5005766;28;20385;-49
2022/05/19 07:41:26;;;;;;;7.55;4.20;;;;;;;;;;4985629;28;20388;-50
2022/05/19 07:43:53;;;;;;;7.10;3.80;;;;;;;;;;5004748;28;20424;-48
2022/05/19 07:46:19;;;;;;;6.65;4.13;;;;;;;;;;4989182;28;20396;-54
2022/05/19 07:48:45;;;;;;;4.82;3.80;;;;;;;;;;4989036;28;20630;-48
2022/05/19 07:51:12;;;;;;;4.53;3.85;;;;;;;;;;5007591;28;20455;-55
2022/05/19 07:53:38;;;;;;;5.30;3.67;;;;;;;;;;5004942;28;20392;-49
2022/05/19 07:56:04;;;;;;;6.67;3.97;;;;;;;;;;4988848;28;20488;-50
2022/05/19 07:58:30;;;;;;;4.70;3.60;;;;;;;;;;4988105;28;20419;-49
2022/05/19 08:00:57;;;;;;;5.57;3.77;;;;;;;;;;4986205;28;20725;-50
2022/05/19 08:03:23;;;;;;;7.87;3.70;;;;;;;;;;4983756;28;20423;-50
2022/05/19 08:05:50;;;;;;;5.50;3.60;;;;;;;;;;4986643;28;20400;-51
2022/05/19 08:08:15;;;;;;;7.20;3.80;;;;;;;;;;5004574;28;20397;-51
2022/05/19 08:10:41;;;;;;;6.28;3.42;;;;;;;;;;4984509;28;20420;-54
2022/05/19 08:15:52;;;;;;;5.72;3.75;;;;;;;;;;5005251;28;20404;-50
2022/05/19 08:18:20;;;;;;;5.15;3.50;;;;;;;;;;5005554;28;20384;-53
2022/05/19 08:20:50;;;;;;;6.63;3.60;;;;;;;;;;4985061;28;20480;-51
2022/05/19 08:23:18;;;;;;;6.18;3.53;;;;;;;;;;4985964;28;20462;-52
2022/05/19 08:25:44;;;;;;;5.70;3.10;;;;;;;;;;4987159;28;20475;-50
2022/05/19 08:28:14;;;;;;;2.90;2.53;;;;;;;;;;5003965;28;20550;-53
2022/05/19 08:30:40;;;;;;;5.03;2.90;;;;;;;;;;4985805;28;21083;-49
2022/05/19 08:33:06;;;;;;;5.22;3.00;;;;;;;;;;4985757;28;20849;-52
2022/05/19 08:35:32;;;;;;;2.65;2.45;;;;;;;;;;4983812;28;20393;-52
2022/05/19 08:37:58;;;;;;;5.00;3.00;;;;;;;;;;4985126;28;20385;-55
2022/05/19 08:40:24;;;;;;;5.03;3.00;;;;;;;;;;4989922;28;20392;-50
2022/05/19 08:42:53;;;;;;;4.05;2.80;;;;;;;;;;4990120;28;20773;-53
2022/05/19 08:45:26;;;;;;;4.93;2.50;;;;;;;;;;4990400;28;20397;-51
2022/05/19 08:48:11;;;;;;;6.60;2.50;;;;;;;;;;4991183;28;20428;-53
2022/05/19 08:50:43;;;;;;;6.53;2.70;;;;;;;;;;4992003;28;20408;-55
2022/05/19 08:53:34;;;;;;;5.15;2.90;;;;;;;;;;5010653;28;20388;-54
2022/05/19 08:56:25;;;;;;;7.38;2.95;;;;;;;;;;4993516;28;20377;-53
2022/05/19 08:59:26;;;;;;;4.85;2.42;;;;;;;;;;4965812;28;20424;-54
2022/05/19 09:01:54;;;;;;;6.17;2.50;;;;;;;;;;4950771;28;20443;-52
2022/05/19 09:04:38;;;;;;;4.47;2.60;;;;;;;;;;4984028;28;20389;-56
2022/05/19 09:10:23;;;;;;;5.15;2.85;;;;;;;;;;5007618;28;20611;-55
2022/05/19 09:12:56;;;;;;;3.27;2.87;;;;;;;;;;4991538;28;20459;-53
2022/05/19 09:15:22;;;;;;;6.97;3.00;;;;;;;;;;5009578;28;20381;-52
2022/05/19 09:17:48;;;;;;;4.03;2.42;;;;;;;;;;5008691;28;20385;-52
2022/05/19 09:20:21;;;;;;;3.42;2.47;;;;;;;;;;5008140;28;20417;-53
2022/05/19 09:22:52;;;;;;;6.00;2.70;;;;;;;;;;4989978;28;20393;-49
2022/05/19 09:25:22;;;;;;;6.03;2.72;;;;;;;;;;5008160;28;20475;-52
2022/05/19 09:27:51;;;;;;;5.40;2.43;;;;;;;;;;4990051;28;20613;-55
2022/05/19 09:30:43;;;;;;;2.88;2.20;;;;;;;;;;4991380;28;20375;-54
2022/05/19 09:33:14;;;;;;;3.53;2.10;;;;;;;;;;5012676;28;20385;-54
2022/05/19 09:35:43;;;;;;;4.75;2.45;;;;;;;;;;4996754;28;20385;-52
2022/05/19 09:38:13;;;;;;;4.63;2.42;;;;;;;;;;4995912;28;20415;-55
2022/05/19 09:40:42;;;;;;;4.77;2.33;;;;;;;;;;5013279;28;20416;-53
2022/05/19 09:43:14;;;;;;;3.50;2.50;;;;;;;;;;4996180;28;20463;-55
2022/05/19 09:45:47;;;;;;;8.13;2.45;;;;;;;;;;5013444;28;20451;-53
2022/05/19 09:48:14;;;;;;;8.15;2.67;;;;;;;;;;5012422;28;20756;-54
2022/05/19 09:50:47;;;;;;;3.47;2.22;;;;;;;;;;5014221;28;20430;-53
2022/05/19 09:53:26;;;;;;;6.40;2.70;;;;;;;;;;5031609;28;20698;-55
2022/05/19 09:56:01;;;;;;;5.50;2.50;;;;;;;;;;5030295;28;20414;-54
2022/05/19 09:58:30;;;;;;;4.47;2.47;;;;;;;;;;5031801;28;20394;-55
2022/05/19 10:01:02;;;;;;;4.60;2.42;;;;;;;;;;5032970;28;20398;-56
2022/05/19 10:03:46;;;;;;;5.03;2.67;;;;;;;;;;5033490;28;20391;-53
2022/05/19 10:06:21;;;;;;;3.60;2.20;;;;;;;;;;5032470;28;20501;-49
2022/05/19 10:08:50;;;;;;;4.35;2.53;;;;;;;;;;5031727;28;20395;-51
2022/05/19 10:11:21;;;;;;;4.95;2.58;;;;;;;;;;5031748;28;20402;-56
2022/05/19 10:13:56;;;;;;;3.45;2.45;;;;;;;;;;5031114;28;20402;-53
2022/05/19 10:16:35;;;;;;;3.70;2.30;;;;;;;;;;5030911;28;20411;-52
2022/05/19 10:19:18;;;;;;;8.07;2.50;;;;;;;;;;5032425;28;21013;-53
2022/05/19 10:21:53;;;;;;;2.90;2.20;;;;;;;;;;5033554;28;20550;-53
2022/05/19 10:24:24;;;;;;;5.07;2.65;;;;;;;;;;5032045;28;20400;-56
2022/05/19 10:32:37;;;;;;;5.10;2.75;;;;;;;;;;5031818;28;20410;-54
2022/05/19 10:35:08;;;;;;;3.20;2.05;;;;;;;;;;5030305;28;20690;-50
2022/05/19 10:37:49;;;;;;;3.58;2.70;;;;;;;;;;5030832;28;20473;-53
2022/05/19 10:40:29;;;;;;;4.10;2.67;;;;;;;;;;5013128;28;20461;-52
2022/05/19 10:43:15;;;;;;;4.50;2.40;;;;;;;;;;5029375;28;20725;-54
2022/05/19 10:45:53;;;;;;;5.50;2.58;;;;;;;;;;5030427;28;20446;-54
2022/05/19 10:48:32;;;;;;;4.93;2.80;;;;;;;;;;5029986;28;20474;-54
2022/05/19 10:51:04;;;;;;;5.80;2.55;;;;;;;;;;5027436;28;20423;-52
2022/05/19 10:53:42;;;;;;;3.83;2.58;;;;;;;;;;5028258;28;21131;-56
2022/05/19 10:56:17;;;;;;;3.45;2.92;;;;;;;;;;5028319;28;20417;-55
2022/05/19 10:59:03;;;;;;;3.83;2.78;;;;;;;;;;5027419;28;20415;-54
2022/05/19 11:01:43;;;;;;;4.72;2.60;;;;;;;;;;5026847;28;20818;-56
2022/05/19 11:04:27;;;;;;;3.47;2.53;;;;;;;;;;5025028;28;20842;-53
2022/05/19 11:07:05;;;;;;;3.33;2.80;;;;;;;;;;5026266;28;20386;-54
2022/05/19 11:09:41;;;;;;;5.10;2.73;;;;;;;;;;5011082;28;20391;-52
2022/05/19 11:12:27;;;;;;;4.15;2.50;;;;;;;;;;5028190;28;20410;-53
2022/05/19 11:15:12;;;;;;;3.63;2.27;;;;;;;;;;5027975;28;20382;-55
2022/05/19 11:17:56;;;;;;;4.75;2.92;;;;;;;;;;5028760;28;20379;-54
2022/05/19 11:20:40;;;;;;;3.75;2.67;;;;;;;;;;5028893;28;20395;-57
2022/05/19 11:23:11;;;;;;;5.43;2.60;;;;;;;;;;5028984;28;20390;-55
2022/05/19 11:28:43;;;;;;;5.30;2.47;;;;;;;;;;5029223;28;20905;-53
2022/05/19 11:31:15;;;;;;;3.60;2.35;;;;;;;;;;5028120;28;20415;-53
2022/05/19 11:33:44;;;;;;;6.03;2.65;;;;;;;;;;5028567;28;20442;-55
2022/05/19 11:36:17;;;;;;;3.70;2.65;;;;;;;;;;5031012;28;20383;-54
2022/05/19 11:38:51;;;;;;;3.72;2.33;;;;;;;;;;5029170;28;20379;-50
2022/05/19 11:41:25;;;;;;;4.55;2.50;;;;;;;;;;5029447;28;20383;-54
2022/05/19 11:44:02;;;;;;;6.72;2.58;;;;;;;;;;5030665;28;20411;-52
2022/05/19 11:46:53;;;;;;;5.78;2.33;;;;;;;;;;5028730;28;20692;-53
2022/05/19 11:56:03;;;;;;;4.63;2.45;;;;;;;;;;5029616;28;20373;-55
2022/05/19 11:58:34;;;;;;;2.72;2.40;;;;;;;;;;5028069;28;20371;-54
2022/05/19 12:01:06;;;;;;;5.57;2.60;;;;;;;;;;5024510;28;20383;-51
2022/05/19 12:03:43;;;;;;;2.80;2.10;;;;;;;;;;5023838;28;20405;-56
2022/05/19 12:06:12;;;;;;;3.42;2.42;;;;;;;;;;5025667;28;20777;-54
2022/05/19 12:08:46;;;;;;;4.28;2.60;;;;;;;;;;5026942;28;20469;-54
2022/05/19 12:11:19;;;;;;;3.50;2.50;;;;;;;;;;5028129;28;20429;-50
2022/05/19 12:13:52;;;;;;;4.15;2.42;;;;;;;;;;5026706;28;20679;-53
2022/05/19 12:16:24;;;;;;;4.95;2.90;;;;;;;;;;5030213;28;20403;-53
2022/05/19 12:19:04;;;;;;;6.78;2.92;;;;;;;;;;5030219;28;20676;-55
2022/05/19 12:21:41;;;;;;;4.68;2.47;;;;;;;;;;5029312;28;20386;-53
2022/05/19 12:24:42;;;;;;;3.08;2.50;;;;;;;;;;5026799;28;20407;-51
2022/05/19 12:33:27;;;;;;;4.80;2.38;;;;;;;;;;4987919;28;20433;-55
2022/05/19 12:35:59;;;;;;;3.75;2.30;;;;;;;;;;4969138;28;20496;-56
2022/05/19 12:38:44;;;;;;;3.65;2.45;;;;;;;;;;4984213;28;20452;-51
2022/05/19 12:41:10;;;;;;;2.58;2.38;;;;;;;;;;4985960;28;20447;-50
2022/05/19 12:43:37;;;;;;;3.33;2.13;;;;;;;;;;4997046;28;20414;-53
2022/05/19 12:46:04;;;;;;;3.45;2.40;;;;;;;;;;5024350;28;20611;-52
2022/05/19 12:48:55;;;;;;;2.28;2.00;;;;;;;;;;5024518;28;20386;-55
2022/05/19 12:51:46;;;;;;;3.80;2.20;;;;;;;;;;5025508;28;20423;-53
2022/05/19 12:54:12;;;;;;;3.08;2.10;;;;;;;;;;5027770;28;20869;-51
2022/05/19 12:56:40;;;;;;;2.55;2.00;;;;;;;;;;5026308;28;20477;-53
2022/05/19 12:59:26;;;;;;;4.22;2.40;;;;;;;;;;5027927;28;20437;-52
2022/05/19 13:01:54;;;;;;;2.60;2.22;;;;;;;;;;5027255;28;20398;-52
2022/05/19 13:04:29;;;;;;;3.58;2.03;;;;;;;;;;5025310;28;20393;-51
2022/05/19 13:07:20;;;;;;;2.95;2.00;;;;;;;;;;5028654;28;20485;-55
2022/05/19 13:10:11;;;;;;;5.43;2.53;;;;;;;;;;5032405;28;20379;-55
2022/05/19 13:12:43;;;;;;;2.83;2.10;;;;;;;;;;5029911;28;20497;-51
2022/05/19 13:15:09;;;;;;;4.55;2.10;;;;;;;;;;5029415;28;20395;-54
2022/05/19 13:17:42;;;;;;;4.20;2.20;;;;;;;;;;5025598;28;20398;-51
2022/05/19 13:20:17;;;;;;;4.43;2.20;;;;;;;;;;5028651;28;20383;-49
2022/05/19 13:22:48;;;;;;;2.63;2.08;;;;;;;;;;5024720;28;20391;-52
2022/05/19 13:25:14;;;;;;;3.78;2.20;;;;;;;;;;5020562;28;20632;-55
2022/05/19 13:30:45;;;;;;;3.80;2.20;;;;;;;;;;5021195;28;20496;-52
2022/05/19 13:33:12;;;;;;;3.20;2.30;;;;;;;;;;5019378;28;20779;-53
2022/05/19 13:35:39;;;;;;;3.55;1.80;;;;;;;;;;5020280;28;20391;-54
2022/05/19 13:38:22;;;;;;;5.00;2.10;;;;;;;;;;5020866;28;20472;-54
2022/05/19 13:40:48;;;;;;;3.95;1.92;;;;;;;;;;5018296;28;20835;-55
2022/05/19 13:49:31;;;;;;;3.03;2.00;;;;;;;;;;5020249;28;20500;-55
2022/05/19 13:52:10;;;;;;;2.38;1.70;;;;;;;;;;5020498;28;20445;-54
2022/05/19 13:54:55;;;;;;;3.30;2.20;;;;;;;;;;5021828;28;20440;-50
2022/05/19 13:57:26;;;;;;;4.05;2.08;;;;;;;;;;5022653;28;20385;-51
2022/05/19 13:59:57;;;;;;;3.95;2.33;;;;;;;;;;5020236;28;20736;-54
2022/05/19 14:02:36;;;;;;;3.83;2.22;;;;;;;;;;5021550;28;20480;-52
2022/05/19 14:05:06;;;;;;;2.50;2.28;;;;;;;;;;5020211;28;20686;-52
2022/05/19 14:07:32;;;;;;;2.40;2.20;;;;;;;;;;5020014;28;20470;-54
2022/05/19 14:10:01;;;;;;;4.93;2.30;;;;;;;;;;5021211;28;20394;-54
2022/05/19 14:12:36;;;;;;;4.40;2.13;;;;;;;;;;5020132;28;20940;-50
2022/05/19 14:15:21;;;;;;;3.58;2.25;;;;;;;;;;5020905;28;20383;-52
2022/05/19 14:17:48;;;;;;;4.28;2.10;;;;;;;;;;5020589;28;20389;-55
2022/05/19 14:20:17;;;;;;;3.38;2.30;;;;;;;;;;5024435;28;20395;-53
2022/05/19 14:22:43;;;;;;;5.18;2.20;;;;;;;;;;5022528;28;20398;-53
2022/05/19 14:25:11;;;;;;;2.28;2.03;;;;;;;;;;5026714;28;20387;-57
2022/05/19 14:27:38;;;;;;;2.80;2.40;;;;;;;;;;5030614;28;20437;-51
2022/05/19 14:30:06;;;;;;;3.13;2.15;;;;;;;;;;5028294;28;20806;-53
2022/05/19 14:32:33;;;;;;;2.45;1.95;;;;;;;;;;5027673;28;20415;-55
2022/05/19 14:35:17;;;;;;;5.45;2.70;;;;;;;;;;5027351;28;20403;-55
2022/05/19 14:37:48;;;;;;;4.57;2.10;;;;;;;;;;5025874;28;20399;-50
2022/05/19 14:43:32;;;;;;;2.90;2.00;;;;;;;;;;5027988;28;20375;-53
2022/05/19 14:46:23;;;;;;;3.35;2.03;;;;;;;;;;5026415;28;21157;-54
2022/05/19 14:51:52;;;;;;;2.40;1.90;;;;;;;;;;5020635;28;20421;-54
2022/05/19 14:54:21;;;;;;;3.50;2.08;;;;;;;;;;5356799;22;20824;-51
2022/05/19 14:56:50;;;;;;;3.05;2.17;;;;;;;;;;5025226;28;20399;-54
2022/05/19 14:59:35;;;;;;;2.28;2.00;;;;;;;;;;5026225;28;20382;-52
2022/05/19 15:02:01;;;;;;;2.30;2.08;;;;;;;;;;5045069;28;20674;-52
2022/05/19 15:04:27;;;;;;;2.67;2.40;;;;;;;;;;5028134;28;20763;-50
2022/05/19 15:06:53;;;;;;;3.38;2.13;;;;;;;;;;5045532;28;20776;-49
2022/05/19 15:09:19;;;;;;;4.50;2.40;;;;;;;;;;5029749;28;20421;-49
2022/05/19 15:11:45;;;;;;;6.07;2.40;;;;;;;;;;5047726;28;20409;-51
2022/05/19 15:14:11;;;;;;;3.75;2.35;;;;;;;;;;5010473;28;20446;-50
2022/05/19 15:16:37;;;;;;;2.95;2.10;;;;;;;;;;5025812;28;20666;-50
2022/05/19 15:19:13;;;;;;;3.97;2.13;;;;;;;;;;5026990;28;20646;-50
2022/05/19 15:21:39;;;;;;;8.98;2.10;;;;;;;;;;5026023;28;20424;-54
2022/05/19 15:24:05;;;;;;;2.60;2.15;;;;;;;;;;5023446;28;20805;-53
2022/05/19 15:26:31;;;;;;;3.63;2.15;;;;;;;;;;5022972;28;20401;-50
2022/05/19 15:28:57;;;;;;;3.13;2.20;;;;;;;;;;5021738;28;20404;-51
2022/05/19 15:31:27;;;;;;;3.72;2.20;;;;;;;;;;5023309;28;20884;-48
2022/05/19 15:33:53;;;;;;;5.15;2.40;;;;;;;;;;5040452;28;20747;-52
2022/05/19 15:36:19;;;;;;;3.50;2.47;;;;;;;;;;5023922;28;20896;-53
2022/05/19 15:38:46;;;;;;;5.13;2.35;;;;;;;;;;5040926;28;20804;-51
2022/05/19 15:41:11;;;;;;;4.10;2.35;;;;;;;;;;5041715;28;20673;-49
2022/05/19 15:43:38;;;;;;;3.53;2.30;;;;;;;;;;5022361;28;20987;-50
2022/05/19 15:46:04;;;;;;;4.35;2.40;;;;;;;;;;5022053;28;20823;-48